Time;durP1;ratioP1;P1;durP2;ratioP2;P2;SDS_P1;SDS_P2;PMS_P1;PMS_P2;Temp;Humidity;BMP_temperature;BMP_pressure;BME280_temperature;BME280_humidity;BME280_pressure;Samples;Min_cycle;Max_cycle;Signal;HPM_P1;HPM_P2
2021/09/17 00:00:29;;;;;;;2.17;0.30;;;14.90;99.90;;;;;;5070619;28;20558;-84
2021/09/17 00:02:55;;;;;;;1.83;0.20;;;14.90;99.90;;;;;;5071970;28;20173;-86
2021/09/17 00:05:21;;;;;;;3.33;0.50;;;14.90;99.90;;;;;;5070560;28;20461;-86
2021/09/17 00:07:46;;;;;;;2.13;0.20;;;14.90;99.90;;;;;;5070669;28;20839;-85
2021/09/17 00:10:13;;;;;;;1.70;0.20;;;14.90;99.90;;;;;;5071539;28;20630;-84
2021/09/17 00:12:39;;;;;;;6.20;0.40;;;14.90;99.90;;;;;;5071827;28;20648;-86
2021/09/17 00:15:09;;;;;;;0.70;0.20;;;14.80;99.90;;;;;;5070261;28;20893;-84
2021/09/17 00:17:35;;;;;;;1.33;0.20;;;14.80;99.90;;;;;;5051838;28;20431;-84
2021/09/17 00:20:00;;;;;;;2.23;0.20;;;14.80;99.90;;;;;;5051859;28;20416;-84
2021/09/17 00:22:26;;;;;;;2.50;0.43;;;14.80;99.90;;;;;;5060937;28;20438;-84
2021/09/17 00:24:52;;;;;;;2.87;0.20;;;14.90;99.90;;;;;;5071544;28;20755;-84
2021/09/17 00:27:17;;;;;;;2.50;0.30;;;14.90;99.90;;;;;;5071990;28;20532;-83
2021/09/17 00:29:43;;;;;;;1.20;0.20;;;14.90;99.90;;;;;;5071812;28;20185;-84
2021/09/17 00:32:08;;;;;;;2.40;0.20;;;14.90;99.90;;;;;;5070307;28;20274;-84
2021/09/17 00:34:34;;;;;;;2.20;0.37;;;14.80;99.90;;;;;;5075535;28;20173;-84
2021/09/17 00:37:00;;;;;;;2.53;0.20;;;14.90;99.90;;;;;;5073912;28;20198;-84
2021/09/17 00:39:31;;;;;;;1.43;0.33;;;14.90;99.90;;;;;;5075072;28;20613;-85
2021/09/17 00:41:57;;;;;;;2.77;0.30;;;14.90;99.90;;;;;;5075239;28;20711;-85
2021/09/17 00:44:27;;;;;;;2.43;0.30;;;14.80;99.90;;;;;;5075072;28;20557;-84
2021/09/17 00:46:53;;;;;;;1.07;0.20;;;14.90;99.90;;;;;;5075263;28;20166;-84
2021/09/17 00:49:19;;;;;;;1.50;0.20;;;14.90;99.90;;;;;;5075087;28;20461;-84
2021/09/17 00:51:46;;;;;;;3.03;0.20;;;14.80;99.90;;;;;;5073715;28;20477;-83
2021/09/17 00:54:12;;;;;;;1.57;0.20;;;14.80;99.90;;;;;;5073440;28;20443;-84
2021/09/17 00:56:37;;;;;;;3.30;0.30;;;14.90;99.90;;;;;;5075029;28;20487;-84
2021/09/17 00:59:03;;;;;;;2.40;0.20;;;14.90;99.90;;;;;;5075016;28;20211;-84
2021/09/17 01:01:29;;;;;;;3.10;0.40;;;14.90;99.90;;;;;;5074934;28;20192;-84
2021/09/17 01:03:54;;;;;;;2.07;0.23;;;14.90;99.90;;;;;;5074937;28;20568;-83
2021/09/17 01:06:20;;;;;;;1.33;0.20;;;14.90;99.90;;;;;;5074819;28;20185;-84
2021/09/17 01:08:46;;;;;;;2.20;0.40;;;14.90;99.90;;;;;;5074522;28;20166;-85
2021/09/17 01:11:12;;;;;;;3.70;0.30;;;14.90;99.90;;;;;;5073410;28;20213;-84
2021/09/17 01:13:39;;;;;;;3.70;0.30;;;14.90;99.90;;;;;;5074765;28;20974;-85
2021/09/17 01:16:04;;;;;;;3.27;0.30;;;14.90;99.90;;;;;;5074713;28;20537;-83
2021/09/17 01:18:30;;;;;;;1.57;0.20;;;14.90;99.90;;;;;;5074710;28;20923;-84
2021/09/17 01:20:58;;;;;;;1.03;0.50;;;14.90;99.90;;;;;;5074424;28;20168;-84
2021/09/17 01:23:24;;;;;;;2.73;0.43;;;14.90;99.90;;;;;;5074087;28;20271;-84
2021/09/17 01:25:49;;;;;;;3.60;0.30;;;14.80;99.90;;;;;;5074418;28;20577;-84
2021/09/17 01:28:24;;;;;;;4.57;0.20;;;14.80;99.90;;;;;;5074383;28;20182;-83
2021/09/17 01:30:50;;;;;;;3.10;0.20;;;14.80;99.90;;;;;;5074030;28;20204;-84
2021/09/17 01:33:16;;;;;;;2.53;0.30;;;14.80;99.90;;;;;;5074134;28;20441;-84
2021/09/17 01:35:42;;;;;;;1.13;0.20;;;14.80;99.90;;;;;;5074309;28;20842;-84
2021/09/17 01:38:07;;;;;;;1.00;0.20;;;14.80;99.90;;;;;;5074364;28;20173;-84
2021/09/17 01:40:33;;;;;;;1.60;0.40;;;14.80;99.90;;;;;;5072295;28;20419;-83
2021/09/17 01:42:59;;;;;;;1.83;0.20;;;14.80;99.90;;;;;;5073584;28;20176;-83
2021/09/17 01:45:24;;;;;;;2.53;0.87;;;14.70;99.90;;;;;;5074206;28;20545;-83
2021/09/17 01:47:50;;;;;;;4.20;0.40;;;14.70;99.90;;;;;;5055960;28;20177;-83
2021/09/17 01:50:15;;;;;;;2.20;0.20;;;14.70;99.90;;;;;;5073870;28;20185;-84
2021/09/17 01:52:41;;;;;;;1.13;0.20;;;14.70;99.90;;;;;;5073928;28;20178;-84
2021/09/17 01:55:09;;;;;;;2.13;0.20;;;14.70;99.90;;;;;;5073478;28;20518;-83
2021/09/17 01:57:36;;;;;;;4.87;0.37;;;14.70;99.90;;;;;;5056102;28;20607;-85
2021/09/17 02:00:05;;;;;;;2.10;0.23;;;14.70;99.90;;;;;;5073841;28;20415;-83
2021/09/17 02:02:31;;;;;;;0.70;0.27;;;14.70;99.90;;;;;;5073751;28;20949;-83
2021/09/17 02:04:56;;;;;;;3.10;0.20;;;14.70;99.90;;;;;;5073833;28;20419;-84
2021/09/17 02:07:22;;;;;;;1.13;0.20;;;14.70;99.90;;;;;;5056729;28;20200;-84
2021/09/17 02:09:47;;;;;;;1.03;0.20;;;14.70;99.90;;;;;;5074275;28;20184;-84
2021/09/17 02:12:13;;;;;;;1.93;0.20;;;14.70;99.90;;;;;;5056753;28;20691;-84
2021/09/17 02:14:39;;;;;;;1.00;0.20;;;14.70;99.90;;;;;;5081543;28;20166;-84
2021/09/17 02:17:05;;;;;;;5.43;0.50;;;14.70;99.90;;;;;;5074309;28;20513;-83
2021/09/17 02:19:30;;;;;;;2.93;0.20;;;14.70;99.90;;;;;;5074077;28;20522;-84
2021/09/17 02:21:56;;;;;;;1.17;0.20;;;14.70;99.90;;;;;;5074179;28;20181;-85
2021/09/17 02:24:22;;;;;;;2.10;0.20;;;14.70;99.90;;;;;;5073337;28;20593;-84
2021/09/17 02:26:48;;;;;;;2.50;0.30;;;14.70;99.90;;;;;;5073446;28;20177;-84
2021/09/17 02:29:13;;;;;;;2.20;0.40;;;14.70;99.90;;;;;;5073284;28;20448;-84
2021/09/17 02:31:39;;;;;;;1.10;0.20;;;14.60;99.90;;;;;;5055345;28;20963;-84
2021/09/17 02:34:05;;;;;;;1.57;0.30;;;14.70;99.90;;;;;;5073268;28;20168;-84
2021/09/17 02:36:30;;;;;;;2.00;0.20;;;14.70;99.90;;;;;;5073271;28;20538;-84
2021/09/17 02:38:56;;;;;;;3.50;0.30;;;14.60;99.90;;;;;;5054670;28;20176;-83
2021/09/17 02:41:22;;;;;;;4.20;0.20;;;14.70;99.90;;;;;;5073106;28;20169;-83
2021/09/17 02:43:47;;;;;;;2.50;0.30;;;14.70;99.90;;;;;;5071591;28;20213;-83
2021/09/17 02:46:13;;;;;;;0.97;0.20;;;14.70;99.90;;;;;;5073048;28;20169;-84
2021/09/17 02:48:38;;;;;;;3.53;0.30;;;14.60;99.90;;;;;;5071773;28;20197;-84
2021/09/17 02:51:07;;;;;;;2.63;0.33;;;14.70;99.90;;;;;;5071638;28;20209;-84
2021/09/17 02:53:32;;;;;;;7.60;0.50;;;14.70;99.90;;;;;;5072625;28;20555;-84
2021/09/17 02:55:58;;;;;;;0.93;0.20;;;14.70;99.90;;;;;;5070990;28;20423;-85
2021/09/17 02:58:23;;;;;;;1.77;0.20;;;14.60;99.90;;;;;;5071603;28;20173;-84
2021/09/17 03:00:49;;;;;;;1.47;0.57;;;14.60;99.90;;;;;;5072855;28;20166;-84
2021/09/17 03:03:16;;;;;;;3.50;0.20;;;14.60;99.90;;;;;;5072733;28;20169;-85
2021/09/17 03:05:44;;;;;;;3.67;0.20;;;14.70;99.90;;;;;;5074533;28;20186;-85
2021/09/17 03:08:10;;;;;;;1.90;0.20;;;14.60;99.90;;;;;;5074465;28;20407;-85
2021/09/17 03:10:35;;;;;;;5.07;0.40;;;14.70;99.90;;;;;;5092898;28;20448;-83
2021/09/17 03:13:01;;;;;;;2.33;0.20;;;14.60;99.90;;;;;;5093026;28;20182;-85
2021/09/17 03:15:27;;;;;;;2.93;0.47;;;14.60;99.90;;;;;;5092870;28;20226;-83
2021/09/17 03:17:52;;;;;;;2.70;0.23;;;14.60;99.90;;;;;;5092841;28;20172;-83
2021/09/17 03:20:18;;;;;;;2.10;0.20;;;14.60;99.90;;;;;;5074739;28;20168;-86
2021/09/17 03:22:44;;;;;;;1.67;0.20;;;14.60;99.90;;;;;;5074791;28;20422;-84
2021/09/17 03:25:10;;;;;;;0.93;0.20;;;14.60;99.90;;;;;;5092303;28;20171;-84
2021/09/17 03:27:35;;;;;;;1.53;0.20;;;14.50;99.90;;;;;;5074755;28;20195;-84
2021/09/17 03:30:02;;;;;;;1.47;0.50;;;14.60;99.90;;;;;;5084489;28;20415;-84
2021/09/17 03:32:27;;;;;;;1.13;0.20;;;14.60;99.90;;;;;;5076166;28;20196;-84
2021/09/17 03:34:53;;;;;;;1.37;0.30;;;14.50;99.90;;;;;;5074632;28;20891;-84
2021/09/17 03:37:18;;;;;;;1.43;0.30;;;14.50;99.90;;;;;;5092768;28;20800;-84
2021/09/17 03:39:44;;;;;;;1.60;0.30;;;14.50;99.90;;;;;;5092263;28;20176;-84
2021/09/17 03:42:10;;;;;;;0.53;0.20;;;14.50;99.90;;;;;;5092661;28;20176;-83
2021/09/17 03:44:35;;;;;;;1.47;0.10;;;14.50;99.90;;;;;;5092365;28;20223;-84
2021/09/17 03:47:01;;;;;;;1.60;0.30;;;14.50;99.90;;;;;;5092402;28;20255;-84
2021/09/17 03:49:27;;;;;;;3.00;0.20;;;14.50;99.90;;;;;;5092706;28;20542;-84
2021/09/17 03:51:53;;;;;;;1.30;0.30;;;14.50;99.90;;;;;;5092366;28;20470;-85
2021/09/17 03:54:24;;;;;;;2.23;0.20;;;14.50;99.90;;;;;;5092288;28;20237;-85
2021/09/17 03:56:50;;;;;;;3.67;0.30;;;14.40;99.90;;;;;;5074459;28;20271;-84
2021/09/17 03:59:15;;;;;;;1.40;0.20;;;14.50;99.90;;;;;;5091424;28;20970;-85
2021/09/17 04:01:44;;;;;;;3.17;0.20;;;14.40;99.90;;;;;;5092780;28;20517;-85
2021/09/17 04:04:10;;;;;;;0.40;0.20;;;14.40;99.90;;;;;;5092730;28;20524;-84
2021/09/17 04:06:35;;;;;;;1.47;0.30;;;14.40;99.90;;;;;;5075981;28;20434;-84
2021/09/17 04:09:01;;;;;;;1.37;0.20;;;14.40;99.90;;;;;;5096369;28;20188;-84
2021/09/17 04:11:26;;;;;;;0.50;0.20;;;14.30;99.90;;;;;;5096441;28;20680;-85
2021/09/17 04:13:52;;;;;;;2.27;0.43;;;14.30;99.90;;;;;;5096467;28;20165;-84
2021/09/17 04:16:18;;;;;;;2.10;0.20;;;14.30;99.90;;;;;;5096445;28;20180;-85
2021/09/17 04:18:43;;;;;;;3.10;0.27;;;14.30;99.90;;;;;;5096521;28;20221;-85
2021/09/17 04:21:09;;;;;;;2.97;0.20;;;14.30;99.90;;;;;;5096357;28;20178;-85
2021/09/17 04:23:35;;;;;;;0.80;0.20;;;14.30;99.90;;;;;;5096061;28;20199;-85
2021/09/17 04:26:00;;;;;;;1.40;0.20;;;14.30;99.90;;;;;;5096254;28;20629;-84
2021/09/17 04:28:26;;;;;;;1.07;0.20;;;14.20;99.90;;;;;;5077940;28;20198;-84
2021/09/17 04:30:51;;;;;;;0.80;0.20;;;14.20;99.90;;;;;;5096043;28;20603;-85
2021/09/17 04:33:17;;;;;;;1.37;0.20;;;14.20;99.90;;;;;;5096024;28;20172;-84
2021/09/17 04:35:45;;;;;;;0.83;0.40;;;14.20;99.90;;;;;;5096057;28;20195;-85
2021/09/17 04:38:14;;;;;;;0.40;0.20;;;14.20;99.90;;;;;;5095686;28;20259;-84
2021/09/17 04:40:41;;;;;;;2.70;0.20;;;14.20;99.90;;;;;;5096084;28;20412;-86
2021/09/17 04:43:06;;;;;;;0.30;0.20;;;14.10;99.90;;;;;;5095848;28;20458;-85
2021/09/17 04:45:32;;;;;;;2.73;0.30;;;14.10;99.90;;;;;;5095860;28;20418;-84
2021/09/17 04:48:09;;;;;;;2.23;0.20;;;14.20;99.90;;;;;;5095977;28;20176;-85
2021/09/17 04:50:35;;;;;;;0.80;0.10;;;14.10;99.90;;;;;;5077627;28;20173;-86
2021/09/17 04:53:00;;;;;;;1.40;0.20;;;14.10;99.90;;;;;;5077262;28;20785;-85
2021/09/17 04:55:26;;;;;;;2.17;0.20;;;14.10;99.90;;;;;;5095769;28;20410;-85
2021/09/17 04:57:52;;;;;;;0.30;0.20;;;14.00;99.90;;;;;;5096327;28;20272;-83
2021/09/17 05:00:17;;;;;;;0.90;0.20;;;14.10;99.90;;;;;;5097399;28;20202;-85
2021/09/17 05:02:43;;;;;;;0.57;0.20;;;14.10;99.90;;;;;;5096349;28;20172;-84
2021/09/17 05:05:09;;;;;;;0.50;0.20;;;14.00;99.90;;;;;;5097023;28;20260;-85
2021/09/17 05:07:34;;;;;;;1.73;0.20;;;14.00;99.90;;;;;;5095354;28;20175;-86
2021/09/17 05:10:00;;;;;;;1.53;0.20;;;14.00;99.90;;;;;;5077297;28;20399;-84
2021/09/17 05:12:26;;;;;;;0.30;0.20;;;14.00;99.90;;;;;;5077599;28;20233;-84
2021/09/17 05:14:51;;;;;;;1.17;0.20;;;14.00;99.90;;;;;;5095519;28;20200;-85
2021/09/17 05:17:17;;;;;;;0.83;0.10;;;14.00;99.90;;;;;;5077346;28;20175;-84
2021/09/17 05:19:42;;;;;;;0.50;0.20;;;14.00;99.90;;;;;;5094526;28;20178;-86
2021/09/17 05:22:08;;;;;;;0.97;0.20;;;13.90;99.90;;;;;;5095305;28;20175;-84
2021/09/17 05:24:34;;;;;;;1.53;0.20;;;14.00;99.90;;;;;;5094759;28;20179;-84
2021/09/17 05:27:02;;;;;;;0.53;0.20;;;13.90;99.90;;;;;;5095150;28;20176;-83
2021/09/17 05:29:28;;;;;;;0.70;0.20;;;14.00;99.90;;;;;;5095315;28;20269;-83
2021/09/17 05:31:53;;;;;;;0.60;0.20;;;14.00;99.90;;;;;;5095309;28;20486;-83
2021/09/17 05:34:19;;;;;;;0.50;0.20;;;14.00;99.90;;;;;;5094808;28;20173;-83
2021/09/17 05:36:44;;;;;;;2.60;0.30;;;14.00;99.90;;;;;;5095006;28;20166;-84
2021/09/17 05:39:10;;;;;;;0.60;0.20;;;14.00;99.90;;;;;;5094577;28;20171;-84
2021/09/17 05:41:36;;;;;;;1.43;0.20;;;14.00;99.90;;;;;;5094746;28;20176;-83
2021/09/17 05:44:02;;;;;;;0.30;0.10;;;14.00;99.90;;;;;;5094526;28;20261;-85
2021/09/17 05:46:28;;;;;;;0.30;0.20;;;14.00;99.90;;;;;;5095023;28;20213;-85
2021/09/17 05:48:53;;;;;;;1.37;0.30;;;14.00;99.90;;;;;;5094903;28;20406;-87
2021/09/17 05:51:19;;;;;;;1.30;0.10;;;14.00;99.90;;;;;;5073390;28;20213;-85
2021/09/17 05:53:45;;;;;;;0.30;0.10;;;14.00;99.90;;;;;;5071796;28;20202;-87
2021/09/17 05:56:10;;;;;;;0.33;0.10;;;14.00;99.90;;;;;;5073238;28;20177;-85
2021/09/17 05:58:37;;;;;;;0.77;0.47;;;14.10;99.90;;;;;;5073037;28;20169;-87
2021/09/17 06:01:04;;;;;;;1.77;0.20;;;14.10;99.90;;;;;;5073451;28;20193;-88
2021/09/17 06:03:29;;;;;;;0.60;0.20;;;14.10;99.90;;;;;;5072905;28;20415;-86
2021/09/17 06:05:55;;;;;;;2.10;0.10;;;14.10;99.90;;;;;;5073875;28;20768;-89
2021/09/17 06:08:21;;;;;;;0.30;0.20;;;14.20;99.90;;;;;;5074552;28;20621;-87
2021/09/17 06:10:49;;;;;;;1.27;0.20;;;14.20;99.90;;;;;;5076455;28;20206;-87
2021/09/17 06:13:14;;;;;;;0.93;0.20;;;14.20;99.90;;;;;;5072426;28;20577;-86
2021/09/17 06:15:40;;;;;;;2.57;0.20;;;14.20;99.90;;;;;;5074012;28;20407;-88
2021/09/17 06:18:06;;;;;;;0.67;0.10;;;14.30;99.90;;;;;;5073573;28;20169;-86
2021/09/17 06:20:31;;;;;;;0.43;0.20;;;14.30;99.90;;;;;;5072356;28;20267;-88
2021/09/17 06:22:57;;;;;;;2.67;0.20;;;14.40;99.90;;;;;;5071814;28;20200;-88
2021/09/17 06:25:23;;;;;;;1.53;0.20;;;14.40;99.90;;;;;;5073331;28;20176;-85
2021/09/17 06:27:50;;;;;;;1.90;0.17;;;14.50;99.90;;;;;;5073159;28;20656;-88
2021/09/17 06:30:18;;;;;;;1.50;0.10;;;14.60;99.90;;;;;;5072220;28;20411;-88
2021/09/17 06:32:44;;;;;;;3.50;0.20;;;14.60;99.90;;;;;;5073269;28;20497;-87
2021/09/17 06:35:11;;;;;;;0.37;0.20;;;14.60;99.90;;;;;;5072359;28;20415;-87
2021/09/17 06:37:48;;;;;;;1.33;0.20;;;14.60;99.90;;;;;;5072746;28;20617;-87
2021/09/17 06:40:14;;;;;;;0.60;0.20;;;14.70;99.90;;;;;;5073374;28;20415;-88
2021/09/17 06:42:40;;;;;;;0.30;0.30;;;14.70;99.90;;;;;;5073205;28;20783;-85
2021/09/17 06:45:07;;;;;;;0.60;0.20;;;14.70;99.90;;;;;;5075042;28;20434;-84
2021/09/17 06:47:46;;;;;;;0.93;0.20;;;14.90;99.90;;;;;;5092964;28;20169;-85
2021/09/17 06:50:13;;;;;;;0.80;0.20;;;15.10;99.90;;;;;;5093197;28;20422;-88
2021/09/17 06:52:39;;;;;;;1999.90;999.90;;;16.00;99.90;;;;;;5092682;28;20557;-85
2021/09/17 06:55:06;;;;;;;1.50;0.20;;;18.80;99.90;;;;;;5092807;28;20467;-84
2021/09/17 06:57:52;;;;;;;0.30;0.20;;;20.90;99.90;;;;;;5074354;28;20947;-87
2021/09/17 07:00:20;;;;;;;0.30;0.10;;;21.30;99.90;;;;;;5092487;28;20500;-85
2021/09/17 07:02:45;;;;;;;1.03;0.20;;;21.10;99.90;;;;;;5092714;28;20421;-87
2021/09/17 07:05:12;;;;;;;0.90;0.30;;;22.00;99.90;;;;;;5093184;28;20411;-84
2021/09/17 07:07:38;;;;;;;159.13;15.13;;;22.80;97.00;;;;;;5092261;28;20339;-86
2021/09/17 07:10:05;;;;;;;2.50;0.20;;;22.50;97.60;;;;;;5092462;28;20466;-84
2021/09/17 07:12:30;;;;;;;1.00;0.20;;;23.40;94.20;;;;;;5092729;28;20269;-85
2021/09/17 07:14:56;;;;;;;153.33;61.60;;;22.80;94.80;;;;;;5094273;28;20414;-85
2021/09/17 07:17:22;;;;;;;0.97;0.20;;;23.20;93.00;;;;;;5092327;28;20176;-85
2021/09/17 07:19:47;;;;;;;0.70;0.20;;;22.60;93.90;;;;;;5092443;28;20177;-86
2021/09/17 07:22:13;;;;;;;1.87;0.20;;;22.80;93.50;;;;;;5093463;28;20168;-85
2021/09/17 07:24:39;;;;;;;19.70;0.30;;;23.40;91.80;;;;;;5074811;28;20172;-86
2021/09/17 07:27:05;;;;;;;27.40;1.17;;;23.70;91.30;;;;;;5092512;28;20165;-83
2021/09/17 07:29:30;;;;;;;21.57;0.83;;;23.50;90.80;;;;;;5092206;28;20168;-88
2021/09/17 07:31:56;;;;;;;1.17;0.30;;;23.20;90.60;;;;;;5092239;28;20200;-85
2021/09/17 07:34:21;;;;;;;1.53;0.30;;;23.50;89.20;;;;;;5092369;28;20168;-85
2021/09/17 07:36:47;;;;;;;1.23;0.30;;;24.00;90.50;;;;;;5092239;28;20171;-85
2021/09/17 07:39:12;;;;;;;0.50;0.20;;;24.40;88.20;;;;;;5092301;28;20169;-89
2021/09/17 07:41:38;;;;;;;0.53;0.20;;;24.30;84.80;;;;;;5093315;28;20172;-86
2021/09/17 07:44:04;;;;;;;0.40;0.20;;;24.40;84.50;;;;;;5096566;28;20231;-86
2021/09/17 07:46:32;;;;;;;0.70;0.20;;;24.60;84.10;;;;;;5078657;28;20164;-87
2021/09/17 07:48:57;;;;;;;0.30;0.20;;;24.50;88.30;;;;;;5079646;28;20697;-84
2021/09/17 07:51:23;;;;;;;0.90;0.20;;;24.70;85.00;;;;;;5098957;28;20450;-87
2021/09/17 07:53:49;;;;;;;0.47;0.33;;;24.80;81.20;;;;;;5097587;28;20636;-90
2021/09/17 07:56:15;;;;;;;0.50;0.20;;;24.30;83.20;;;;;;5097289;28;20408;-88
2021/09/17 07:58:40;;;;;;;0.30;0.20;;;24.80;80.00;;;;;;5078187;28;20182;-86
2021/09/17 08:01:06;;;;;;;1.57;0.20;;;24.20;82.50;;;;;;5095985;28;20249;-88
2021/09/17 08:03:34;;;;;;;0.30;0.20;;;24.80;84.20;;;;;;5077879;28;20644;-87
2021/09/17 08:06:00;;;;;;;0.50;0.20;;;24.40;81.00;;;;;;5096308;28;20161;-90
2021/09/17 08:08:27;;;;;;;0.30;0.20;;;24.60;81.80;;;;;;5078460;28;20421;-91
2021/09/17 08:10:52;;;;;;;0.40;0.20;;;24.70;80.60;;;;;;5078022;28;20485;-91
2021/09/17 08:13:18;;;;;;;1.13;0.20;;;25.70;82.00;;;;;;5077757;28;20946;-89
2021/09/17 08:15:47;;;;;;;0.40;0.20;;;25.90;79.10;;;;;;5095662;28;20171;-89
2021/09/17 08:18:13;;;;;;;2.67;0.20;;;25.80;75.60;;;;;;5095753;28;20636;-88
2021/09/17 08:20:47;;;;;;;0.40;0.20;;;25.80;76.10;;;;;;5095940;28;20406;-89
2021/09/17 08:23:13;;;;;;;0.43;0.10;;;25.70;73.40;;;;;;5077323;28;20418;-86
2021/09/17 08:25:39;;;;;;;0.70;0.10;;;26.00;75.30;;;;;;5096049;28;20405;-89
2021/09/17 08:28:05;;;;;;;1.03;0.20;;;24.90;76.90;;;;;;5077478;28;20589;-92
2021/09/17 08:30:30;;;;;;;1.07;0.20;;;25.60;77.00;;;;;;5059043;28;20276;-85
2021/09/17 08:32:56;;;;;;;0.40;0.20;;;25.70;74.30;;;;;;5055610;28;20181;-86
2021/09/17 08:35:21;;;;;;;0.70;0.20;;;25.70;73.50;;;;;;5055738;28;20197;-85
2021/09/17 08:37:47;;;;;;;0.57;0.20;;;26.10;72.70;;;;;;5055347;28;20248;-86
2021/09/17 08:40:14;;;;;;;0.50;0.20;;;26.30;72.40;;;;;;5055595;28;20184;-85
2021/09/17 08:42:40;;;;;;;0.40;0.20;;;25.50;76.20;;;;;;5055478;28;20536;-87
2021/09/17 08:45:06;;;;;;;0.80;0.20;;;26.10;70.80;;;;;;5035850;28;20512;-85
2021/09/17 08:47:32;;;;;;;0.93;0.30;;;23.50;82.40;;;;;;5035102;28;20812;-85
2021/09/17 08:49:58;;;;;;;0.30;0.20;;;23.00;87.40;;;;;;5035950;28;20479;-85
2021/09/17 08:52:23;;;;;;;0.40;0.20;;;23.90;84.60;;;;;;5034715;28;20292;-86
2021/09/17 08:54:52;;;;;;;0.70;0.20;;;21.10;94.90;;;;;;5044402;28;20186;-84
2021/09/17 08:57:17;;;;;;;0.97;0.20;;;19.80;99.90;;;;;;5037149;28;20178;-86
2021/09/17 08:59:43;;;;;;;1.00;0.20;;;19.00;99.90;;;;;;5055402;28;20473;-84
2021/09/17 09:02:22;;;;;;;0.40;0.20;;;18.30;99.90;;;;;;5055605;28;20166;-88
2021/09/17 09:05:04;;;;;;;0.40;0.20;;;17.80;99.90;;;;;;5052753;28;20182;-84
2021/09/17 09:07:30;;;;;;;0.50;0.20;;;17.60;99.90;;;;;;5047805;28;20454;-87
2021/09/17 09:10:11;;;;;;;1.53;0.20;;;17.80;99.90;;;;;;5052763;28;20414;-83
2021/09/17 09:12:48;;;;;;;0.57;0.20;;;19.10;99.90;;;;;;5037293;28;20984;-86
2021/09/17 09:15:25;;;;;;;0.40;0.10;;;20.90;99.90;;;;;;5055303;28;20411;-85
2021/09/17 09:17:53;;;;;;;1.17;0.20;;;21.70;99.90;;;;;;5055751;28;20407;-88
2021/09/17 09:20:33;;;;;;;1.23;0.20;;;21.30;99.90;;;;;;5055473;28;20402;-90
2021/09/17 09:23:13;;;;;;;1.07;0.20;;;21.50;99.80;;;;;;5055215;28;20422;-87
2021/09/17 09:26:03;;;;;;;0.50;0.10;;;21.00;99.90;;;;;;5055132;28;20410;-90
2021/09/17 09:28:32;;;;;;;0.40;0.20;;;21.30;99.90;;;;;;5037240;28;20827;-88
2021/09/17 09:31:05;;;;;;;1.43;0.47;;;19.80;99.90;;;;;;5048661;28;20950;-91
2021/09/17 09:33:34;;;;;;;1.13;0.20;;;20.00;99.90;;;;;;5037199;28;20929;-85
2021/09/17 09:35:59;;;;;;;0.50;0.30;;;21.30;99.90;;;;;;5034593;28;20419;-88
2021/09/17 09:38:37;;;;;;;0.40;0.20;;;22.00;97.70;;;;;;5037028;28;20434;-93
2021/09/17 09:41:08;;;;;;;0.60;0.40;;;22.30;98.30;;;;;;5037789;28;20200;-84
2021/09/17 09:43:39;;;;;;;0.60;0.10;;;23.50;92.40;;;;;;5060420;28;20790;-85
2021/09/17 09:46:23;;;;;;;0.50;0.20;;;23.90;92.10;;;;;;5072706;28;20423;-88
2021/09/17 09:49:03;;;;;;;1.87;0.30;;;23.60;90.90;;;;;;5074244;28;20419;-86
2021/09/17 09:51:55;;;;;;;2.30;0.20;;;20.60;99.90;;;;;;5072638;28;20792;-86
2021/09/17 09:54:23;;;;;;;1.70;0.20;;;21.00;99.90;;;;;;5062940;28;20838;-85
2021/09/17 09:56:50;;;;;;;2.03;0.20;;;22.40;99.20;;;;;;5073925;28;20437;-84
2021/09/17 09:59:20;;;;;;;0.60;0.20;;;21.10;99.90;;;;;;5073931;28;20407;-85
2021/09/17 10:01:46;;;;;;;0.67;0.33;;;20.60;99.90;;;;;;5072625;28;20771;-85
2021/09/17 10:04:14;;;;;;;1.13;0.30;;;20.20;99.90;;;;;;5073441;28;20413;-85
2021/09/17 10:06:40;;;;;;;0.77;0.10;;;19.20;99.90;;;;;;5073737;28;20446;-84
2021/09/17 10:09:09;;;;;;;0.40;0.20;;;18.30;99.90;;;;;;5072021;28;20473;-82
2021/09/17 10:11:37;;;;;;;0.70;0.20;;;17.80;99.90;;;;;;5073665;28;20832;-85
2021/09/17 10:14:04;;;;;;;0.40;0.20;;;17.70;99.90;;;;;;5073642;28;20418;-85
2021/09/17 10:16:32;;;;;;;1.33;0.20;;;17.70;99.90;;;;;;5073617;28;20426;-84
2021/09/17 10:18:59;;;;;;;3.80;0.20;;;17.70;99.90;;;;;;5073633;28;20419;-85
2021/09/17 10:22:13;;;;;;;0.37;0.20;;;17.60;99.90;;;;;;5073505;28;20868;-82
2021/09/17 10:24:41;;;;;;;1.03;0.20;;;17.40;99.90;;;;;;5060016;28;20822;-85
2021/09/17 10:27:12;;;;;;;2.63;0.30;;;17.20;99.90;;;;;;5073333;28;20797;-84
2021/09/17 10:29:42;;;;;;;0.60;0.10;;;17.20;99.90;;;;;;5073439;28;20404;-85
2021/09/17 10:32:33;;;;;;;0.53;0.20;;;17.20;99.90;;;;;;5072022;28;20484;-83
2021/09/17 10:35:02;;;;;;;0.50;0.17;;;17.70;99.90;;;;;;5064828;28;20426;-85
2021/09/17 10:37:50;;;;;;;0.50;0.20;;;17.90;99.90;;;;;;5072903;28;20935;-85
2021/09/17 10:40:43;;;;;;;0.90;0.20;;;17.60;99.90;;;;;;5071774;28;20483;-83
2021/09/17 10:43:08;;;;;;;0.80;0.20;;;17.30;99.90;;;;;;5071515;28;20461;-87
2021/09/17 10:45:42;;;;;;;0.30;0.20;;;17.00;99.90;;;;;;5072823;28;20433;-87
2021/09/17 10:48:12;;;;;;;0.50;0.20;;;16.80;99.90;;;;;;5072925;28;20209;-84
2021/09/17 10:50:57;;;;;;;1.20;0.20;;;16.80;99.90;;;;;;5072562;28;20738;-84
2021/09/17 10:53:48;;;;;;;1.80;0.30;;;16.80;99.90;;;;;;5072395;28;20835;-85
2021/09/17 10:56:15;;;;;;;0.40;0.20;;;16.90;99.90;;;;;;5064209;28;21070;-86
2021/09/17 10:59:30;;;;;;;0.83;0.20;;;17.00;99.90;;;;;;5072586;28;20922;-84
2021/09/17 11:02:01;;;;;;;0.50;0.10;;;17.20;99.90;;;;;;5065509;28;20470;-85
2021/09/17 11:04:34;;;;;;;0.60;0.20;;;17.10;99.90;;;;;;5072458;28;20933;-83
2021/09/17 11:07:22;;;;;;;0.40;0.20;;;16.90;99.90;;;;;;5072234;28;20422;-84
2021/09/17 11:09:49;;;;;;;0.30;0.10;;;16.70;99.90;;;;;;5072627;28;20806;-82
2021/09/17 11:12:16;;;;;;;0.70;0.20;;;16.50;99.90;;;;;;5072545;28;20499;-84
2021/09/17 11:14:42;;;;;;;0.50;0.20;;;16.40;99.90;;;;;;5060217;28;20463;-82
2021/09/17 11:17:08;;;;;;;0.40;0.20;;;16.20;99.90;;;;;;5072120;28;20882;-84
2021/09/17 11:19:33;;;;;;;0.80;0.20;;;16.30;99.90;;;;;;5072605;28;20561;-83
2021/09/17 11:22:06;;;;;;;0.40;0.20;;;16.30;99.90;;;;;;5072103;28;20650;-84
2021/09/17 11:24:36;;;;;;;0.80;0.20;;;16.50;99.90;;;;;;5072734;28;20245;-85
2021/09/17 11:27:02;;;;;;;0.40;0.20;;;16.70;99.90;;;;;;5075753;28;20823;-86
2021/09/17 11:29:27;;;;;;;1.83;0.20;;;16.80;99.90;;;;;;5078605;28;20495;-86
2021/09/17 11:31:59;;;;;;;0.70;0.20;;;16.80;99.90;;;;;;5079366;28;20539;-85
2021/09/17 11:34:33;;;;;;;0.50;0.20;;;16.80;99.90;;;;;;5075913;28;20570;-87
2021/09/17 11:37:04;;;;;;;1.90;0.40;;;16.70;99.90;;;;;;5071047;28;20765;-83
2021/09/17 11:39:38;;;;;;;0.93;0.20;;;16.50;99.90;;;;;;5072430;28;20414;-83
2021/09/17 11:42:10;;;;;;;0.67;0.20;;;16.50;99.90;;;;;;5071075;28;20534;-87
2021/09/17 11:44:44;;;;;;;0.80;0.20;;;16.50;99.90;;;;;;5070844;28;20554;-83
2021/09/17 11:47:11;;;;;;;0.50;0.30;;;16.50;99.90;;;;;;5072468;28;20417;-83
2021/09/17 11:49:42;;;;;;;1.53;0.20;;;16.50;99.90;;;;;;5072006;28;20414;-83
2021/09/17 11:52:13;;;;;;;0.57;0.20;;;16.40;99.90;;;;;;5071385;28;20991;-83
2021/09/17 11:54:39;;;;;;;1.17;0.13;;;16.50;99.90;;;;;;5071052;28;20422;-83
2021/09/17 11:57:06;;;;;;;0.50;0.10;;;16.70;99.90;;;;;;5072279;28;20446;-83
2021/09/17 11:59:38;;;;;;;0.40;0.20;;;16.70;99.90;;;;;;5072198;28;20421;-84
2021/09/17 12:02:20;;;;;;;1.50;0.20;;;16.80;99.90;;;;;;5070801;28;20749;-85
2021/09/17 12:04:58;;;;;;;0.40;0.20;;;16.80;99.90;;;;;;5072037;28;20505;-83
2021/09/17 12:07:25;;;;;;;0.87;0.20;;;16.70;99.90;;;;;;5071964;28;20403;-83
2021/09/17 12:09:52;;;;;;;1.03;0.20;;;16.60;99.90;;;;;;5072193;28;20416;-84
2021/09/17 12:12:17;;;;;;;1.07;0.20;;;16.60;99.90;;;;;;5069166;28;20500;-82
2021/09/17 12:14:54;;;;;;;3.27;0.20;;;16.70;99.90;;;;;;5070813;28;20412;-83
2021/09/17 12:17:20;;;;;;;0.40;0.10;;;16.90;99.90;;;;;;5069145;28;20644;-83
2021/09/17 12:20:08;;;;;;;0.80;0.20;;;17.10;99.90;;;;;;5070950;28;20871;-83
2021/09/17 12:22:36;;;;;;;0.70;0.20;;;17.20;99.90;;;;;;5070255;28;20417;-83
2021/09/17 12:25:12;;;;;;;1.43;0.30;;;17.20;99.90;;;;;;5070827;28;20496;-83
2021/09/17 12:27:44;;;;;;;1.73;0.20;;;17.10;99.90;;;;;;5069557;28;20409;-83
2021/09/17 12:30:14;;;;;;;0.47;0.20;;;17.20;99.90;;;;;;5144720;22;20497;-83
2021/09/17 12:32:43;;;;;;;1.37;0.23;;;17.30;99.90;;;;;;5103205;28;20495;-83
2021/09/17 12:35:17;;;;;;;0.60;0.20;;;20.10;99.90;;;;;;5103860;28;20411;-83
2021/09/17 12:37:53;;;;;;;0.43;0.20;;;19.80;99.90;;;;;;5103357;28;20422;-83
2021/09/17 12:40:21;;;;;;;0.40;0.20;;;18.70;99.90;;;;;;5104397;28;20402;-83
2021/09/17 12:43:12;;;;;;;1.00;0.40;;;17.90;99.90;;;;;;5104159;28;20397;-83
2021/09/17 12:45:40;;;;;;;0.50;0.20;;;17.20;99.90;;;;;;5104091;28;20448;-83
2021/09/17 12:48:11;;;;;;;1.47;0.23;;;16.80;99.90;;;;;;5104073;28;20417;-83
2021/09/17 12:50:38;;;;;;;1.13;0.20;;;16.70;99.90;;;;;;5104347;28;20521;-84